createdAt,value
2023-05-16T00:02:07.327Z,9.30
2023-05-16T00:07:28.296Z,4.28
2023-05-16T00:12:51.924Z,5.88
2023-05-16T00:18:16.186Z,8.55
2023-05-16T00:23:36.950Z,6.57
2023-05-16T00:28:57.945Z,4.82
2023-05-16T00:34:21.414Z,5.72
2023-05-16T00:39:42.509Z,4.60
2023-05-16T00:45:04.065Z,5.80
2023-05-16T00:50:25.159Z,6.10
2023-05-16T00:55:48.009Z,4.10
2023-05-16T01:01:09.298Z,4.63
2023-05-16T01:06:30.441Z,5.03
2023-05-16T01:12:02.276Z,5.15
2023-05-16T01:17:41.551Z,4.88
2023-05-16T01:23:30.135Z,7.05
2023-05-16T01:28:52.592Z,6.22
2023-05-16T01:34:13.948Z,5.05
2023-05-16T01:39:42.530Z,5.45
2023-05-16T01:45:32.865Z,3.85
2023-05-16T01:50:57.654Z,5.60
2023-05-16T01:56:18.824Z,4.30
2023-05-16T02:01:39.882Z,3.40
2023-05-16T02:07:01.977Z,5.75
2023-05-16T02:12:22.994Z,6.80
2023-05-16T02:17:43.901Z,4.97
2023-05-16T02:23:04.568Z,5.13
2023-05-16T02:28:26.554Z,6.38
2023-05-16T02:33:47.358Z,6.25
2023-05-16T02:39:10.327Z,4.40
2023-05-16T02:44:31.363Z,5.35
2023-05-16T02:49:53.386Z,4.28
2023-05-16T02:55:21.663Z,3.88
2023-05-16T03:00:43.677Z,5.10
2023-05-16T03:06:04.766Z,4.93
2023-05-16T03:11:29.095Z,3.42
2023-05-16T03:16:50.100Z,4.30
2023-05-16T03:22:11.085Z,4.38
2023-05-16T03:27:31.998Z,4.55
2023-05-16T03:32:53.130Z,4.40
2023-05-16T03:38:14.437Z,5.97
2023-05-16T03:43:38.028Z,4.05
2023-05-16T03:48:59.096Z,4.88
2023-05-16T03:54:19.888Z,5.38
2023-05-16T03:59:40.700Z,5.63
2023-05-16T04:05:01.660Z,3.45
2023-05-16T04:10:22.777Z,4.70
2023-05-16T04:15:43.674Z,6.00
2023-05-16T04:21:04.859Z,4.88
2023-05-16T04:26:25.809Z,4.05
2023-05-16T04:31:46.844Z,4.72
2023-05-16T04:37:08.663Z,4.65
2023-05-16T04:42:29.871Z,5.28
2023-05-16T04:47:51.598Z,4.90
2023-05-16T04:53:12.522Z,6.43
2023-05-16T04:58:33.165Z,17.08
2023-05-16T05:03:55.298Z,8.85
2023-05-16T05:09:17.974Z,5.50
2023-05-16T05:14:38.695Z,8.98
2023-05-16T05:20:02.468Z,4.97
2023-05-16T05:25:24.142Z,5.43
2023-05-16T05:30:44.993Z,6.30
2023-05-16T05:36:06.238Z,5.97
2023-05-16T05:41:27.899Z,5.65
2023-05-16T05:46:49.075Z,4.90
2023-05-16T05:52:10.158Z,5.05
2023-05-16T05:57:31.579Z,8.05
2023-05-16T06:02:52.639Z,5.07
2023-05-16T06:08:13.742Z,6.18
2023-05-16T06:13:34.679Z,7.05
2023-05-16T06:18:57.642Z,6.18
2023-05-16T06:24:20.122Z,7.95
2023-05-16T06:29:41.066Z,9.30
2023-05-16T06:35:02.198Z,7.10
2023-05-16T06:40:22.909Z,6.55
2023-05-16T06:45:46.719Z,6.40
2023-05-16T06:51:08.077Z,9.88
2023-05-16T06:56:29.097Z,6.63
2023-05-16T07:01:50.231Z,5.95
2023-05-16T07:07:11.524Z,7.78
2023-05-16T07:12:32.518Z,5.70
2023-05-16T07:17:53.393Z,7.18
2023-05-16T07:23:14.479Z,6.70
2023-05-16T07:28:35.616Z,10.40
2023-05-16T07:33:56.408Z,11.30
2023-05-16T07:39:17.425Z,6.60
2023-05-16T07:44:38.296Z,7.63
2023-05-16T07:49:59.284Z,7.47
2023-05-16T07:55:20.165Z,7.88
2023-05-16T08:00:41.271Z,9.20
2023-05-16T08:06:02.125Z,7.72
2023-05-16T08:11:23.545Z,6.55
2023-05-16T08:16:44.970Z,7.20
2023-05-16T08:22:09.180Z,9.38
2023-05-16T08:27:30.283Z,7.60
2023-05-16T08:32:50.924Z,11.70
2023-05-16T08:38:12.398Z,7.82
2023-05-16T08:43:35.195Z,9.15
2023-05-16T08:48:59.974Z,7.10
2023-05-16T08:54:23.006Z,8.95
2023-05-16T08:59:45.209Z,9.20
2023-05-16T09:05:08.826Z,8.00
2023-05-16T09:10:29.920Z,12.35
2023-05-16T09:16:12.631Z,8.85
2023-05-16T09:21:36.040Z,7.68
2023-05-16T09:26:57.022Z,8.32
2023-05-16T09:32:18.730Z,7.88
2023-05-16T09:37:44.839Z,9.02
2023-05-16T09:43:08.484Z,9.07
2023-05-16T09:48:29.799Z,10.60
2023-05-16T09:53:50.913Z,8.27
2023-05-16T09:59:11.905Z,8.18
2023-05-16T10:04:33.669Z,10.77
2023-05-16T10:09:56.094Z,8.30
2023-05-16T10:15:17.749Z,12.57
2023-05-16T10:20:41.714Z,8.25
2023-05-16T10:26:06.175Z,9.93
2023-05-16T10:31:29.451Z,8.10
2023-05-16T10:36:51.023Z,7.35
2023-05-16T10:42:14.601Z,11.43
2023-05-16T10:47:35.860Z,9.77
2023-05-16T10:52:57.327Z,8.57
2023-05-16T10:58:25.555Z,8.43
2023-05-16T11:04:04.846Z,8.60
2023-05-16T11:09:28.045Z,9.83
2023-05-16T11:14:52.131Z,9.75
2023-05-16T11:20:32.667Z,13.30
2023-05-16T11:26:01.395Z,11.88
2023-05-16T11:31:25.019Z,13.30
2023-05-16T11:36:46.514Z,11.77
2023-05-16T11:42:07.497Z,14.55
2023-05-16T11:47:29.947Z,8.52
2023-05-16T11:52:57.271Z,14.20
2023-05-16T11:58:20.156Z,8.68
2023-05-16T12:03:41.508Z,12.98
2023-05-16T12:09:10.079Z,13.55
2023-05-16T12:14:31.008Z,14.80
2023-05-16T12:19:52.471Z,12.77
2023-05-16T12:25:33.112Z,12.13
2023-05-16T12:30:54.018Z,11.80
2023-05-16T12:36:15.683Z,10.32
2023-05-16T12:41:42.437Z,10.60
2023-05-16T12:47:03.510Z,10.57
2023-05-16T12:52:24.645Z,13.02
2023-05-16T12:57:50.434Z,20.98
2023-05-16T13:03:12.291Z,12.18
2023-05-16T13:08:33.934Z,11.98
2023-05-16T13:13:54.979Z,13.43
2023-05-16T13:19:16.509Z,11.73
2023-05-16T13:24:38.467Z,14.95
2023-05-16T13:30:00.019Z,10.65
2023-05-16T13:35:21.806Z,10.40
2023-05-16T13:40:42.987Z,10.13
2023-05-16T13:46:04.127Z,8.50
2023-05-16T13:51:25.547Z,12.82
2023-05-16T13:56:46.811Z,11.82
2023-05-16T14:02:07.857Z,13.23
2023-05-16T14:07:28.516Z,10.05
2023-05-16T14:12:49.420Z,11.07
2023-05-16T14:18:10.383Z,11.00
2023-05-16T14:23:31.832Z,8.95
2023-05-16T14:28:53.211Z,13.52
2023-05-16T14:34:14.123Z,10.23
2023-05-16T14:39:35.195Z,9.65
2023-05-16T14:44:56.378Z,13.88
2023-05-16T14:50:17.349Z,10.70
2023-05-16T14:55:39.032Z,12.20
2023-05-16T15:00:59.883Z,9.63
2023-05-16T15:06:20.671Z,9.90
2023-05-16T15:11:41.872Z,10.20
2023-05-16T15:17:05.409Z,6.57
2023-05-16T15:22:30.072Z,9.23
2023-05-16T15:27:51.818Z,5.57
2023-05-16T15:33:13.756Z,8.40
2023-05-16T15:38:35.454Z,9.60
2023-05-16T15:43:56.682Z,5.78
2023-05-16T15:49:17.575Z,8.32
2023-05-16T15:54:38.403Z,7.57
2023-05-16T15:59:59.202Z,12.05
2023-05-16T16:05:21.633Z,5.65
2023-05-16T16:10:42.365Z,8.70
2023-05-16T16:16:03.437Z,7.75
2023-05-16T16:21:24.383Z,6.47
2023-05-16T16:26:45.246Z,8.25
2023-05-16T16:32:06.716Z,7.28
2023-05-16T16:37:27.886Z,9.80
2023-05-16T16:42:50.898Z,8.32
2023-05-16T16:48:12.313Z,8.25
2023-05-16T16:53:35.309Z,9.60
2023-05-16T16:58:56.616Z,9.90
2023-05-16T17:04:19.614Z,9.38
2023-05-16T17:09:43.118Z,6.03
2023-05-16T17:15:06.757Z,7.95
2023-05-16T17:20:27.903Z,5.65
2023-05-16T17:25:48.769Z,8.98
2023-05-16T17:31:09.677Z,8.30
2023-05-16T17:36:31.123Z,7.43
2023-05-16T17:41:57.876Z,10.15
2023-05-16T17:47:19.800Z,6.72
2023-05-16T17:52:40.818Z,7.43
2023-05-16T17:58:01.733Z,8.25
2023-05-16T18:03:22.906Z,8.70
2023-05-16T18:08:45.725Z,7.38
2023-05-16T18:14:09.365Z,9.50
2023-05-16T18:19:31.866Z,8.40
2023-05-16T18:24:54.670Z,9.20
2023-05-16T18:30:16.488Z,8.15
2023-05-16T18:35:37.346Z,9.00
2023-05-16T18:40:58.526Z,6.45
2023-05-16T18:46:19.486Z,8.50
2023-05-16T18:51:40.898Z,4.80
2023-05-16T18:57:05.483Z,5.60
2023-05-16T19:02:37.882Z,7.68
2023-05-16T19:08:03.116Z,5.32
2023-05-16T19:13:30.897Z,8.25
2023-05-16T19:18:52.230Z,8.75
2023-05-16T19:24:13.147Z,4.32
2023-05-16T19:29:33.983Z,4.22
2023-05-16T19:34:55.282Z,3.60
2023-05-16T19:40:19.604Z,4.55
2023-05-16T19:45:40.486Z,2.88
2023-05-16T19:51:01.595Z,5.10
2023-05-16T19:56:23.315Z,7.55
2023-05-16T20:01:44.492Z,5.03
2023-05-16T20:07:07.641Z,4.50
2023-05-16T20:12:28.715Z,7.15
2023-05-16T20:17:49.686Z,4.30
2023-05-16T20:23:10.500Z,5.45
2023-05-16T20:28:31.959Z,3.33
2023-05-16T20:33:52.776Z,6.28
2023-05-16T20:39:13.850Z,4.75
2023-05-16T20:44:35.118Z,3.45
2023-05-16T20:49:57.391Z,4.15
2023-05-16T20:55:19.040Z,3.42
2023-05-16T21:00:40.007Z,6.57
2023-05-16T21:06:04.193Z,3.28
2023-05-16T21:11:28.141Z,3.80
2023-05-16T21:16:49.186Z,5.38
2023-05-16T21:22:11.387Z,5.25
2023-05-16T21:27:33.154Z,4.25
2023-05-16T21:32:54.069Z,3.95
2023-05-16T21:38:17.786Z,2.75
2023-05-16T21:43:38.922Z,4.55
2023-05-16T21:49:00.149Z,8.18
2023-05-16T21:54:21.202Z,6.25
2023-05-16T21:59:42.136Z,5.38
2023-05-16T22:05:03.542Z,5.38
2023-05-16T22:10:24.844Z,7.13
2023-05-16T22:15:52.096Z,4.03
2023-05-16T22:21:17.220Z,6.05
2023-05-16T22:26:38.436Z,3.53
2023-05-16T22:31:59.469Z,4.70
2023-05-16T22:37:21.175Z,3.75
2023-05-16T22:42:42.342Z,10.32
2023-05-16T22:48:03.201Z,6.13
2023-05-16T22:53:24.120Z,3.10
2023-05-16T22:58:44.817Z,5.82
2023-05-16T23:04:06.203Z,3.33
2023-05-16T23:09:27.215Z,4.78
2023-05-16T23:14:48.280Z,3.08
2023-05-16T23:20:09.580Z,3.95
2023-05-16T23:25:30.685Z,3.72
2023-05-16T23:30:51.915Z,6.25
2023-05-16T23:36:12.765Z,4.47
2023-05-16T23:41:33.875Z,8.07
2023-05-16T23:46:54.971Z,5.78
2023-05-16T23:52:15.813Z,6.10
2023-05-16T23:57:36.559Z,5.03
